sensor_id;sensor_type;location;lat;lon;timestamp;temperature;humidity
67141;DHT22;54058;52.010;5.546;2022-12-07T00:02:25;5.60;91.10
67141;DHT22;54058;52.010;5.546;2022-12-07T00:04:50;5.60;91.10
67141;DHT22;54058;52.010;5.546;2022-12-07T00:07:16;5.60;91.10
67141;DHT22;54058;52.010;5.546;2022-12-07T00:09:41;5.50;91.00
67141;DHT22;54058;52.010;5.546;2022-12-07T00:12:08;5.60;91.10
67141;DHT22;54058;52.010;5.546;2022-12-07T00:14:33;5.50;91.10
67141;DHT22;54058;52.010;5.546;2022-12-07T00:16:59;5.50;91.10
67141;DHT22;54058;52.010;5.546;2022-12-07T00:19:24;5.60;91.20
67141;DHT22;54058;52.010;5.546;2022-12-07T00:21:50;5.60;91.20
67141;DHT22;54058;52.010;5.546;2022-12-07T00:24:16;5.60;91.20
67141;DHT22;54058;52.010;5.546;2022-12-07T00:26:42;5.60;91.10
67141;DHT22;54058;52.010;5.546;2022-12-07T00:29:19;5.60;91.10
67141;DHT22;54058;52.010;5.546;2022-12-07T00:31:47;5.60;91.10
67141;DHT22;54058;52.010;5.546;2022-12-07T00:34:15;5.60;91.00
67141;DHT22;54058;52.010;5.546;2022-12-07T00:36:41;5.60;91.00
67141;DHT22;54058;52.010;5.546;2022-12-07T00:39:07;5.60;91.00
67141;DHT22;54058;52.010;5.546;2022-12-07T00:41:32;5.60;91.00
67141;DHT22;54058;52.010;5.546;2022-12-07T00:43:58;5.50;91.00
67141;DHT22;54058;52.010;5.546;2022-12-07T00:46:24;5.50;91.00
67141;DHT22;54058;52.010;5.546;2022-12-07T00:48:51;5.50;91.00
67141;DHT22;54058;52.010;5.546;2022-12-07T00:51:18;5.50;91.00
67141;DHT22;54058;52.010;5.546;2022-12-07T00:53:44;5.50;90.90
67141;DHT22;54058;52.010;5.546;2022-12-07T00:56:19;5.40;90.90
67141;DHT22;54058;52.010;5.546;2022-12-07T00:58:50;5.40;91.00
67141;DHT22;54058;52.010;5.546;2022-12-07T01:01:16;5.40;90.90
67141;DHT22;54058;52.010;5.546;2022-12-07T01:03:41;5.40;91.00
67141;DHT22;54058;52.010;5.546;2022-12-07T01:06:07;5.30;91.00
67141;DHT22;54058;52.010;5.546;2022-12-07T01:08:33;5.40;91.00
67141;DHT22;54058;52.010;5.546;2022-12-07T01:11:05;5.30;90.90
67141;DHT22;54058;52.010;5.546;2022-12-07T01:13:32;5.30;90.90
67141;DHT22;54058;52.010;5.546;2022-12-07T01:16:00;5.20;90.90
67141;DHT22;54058;52.010;5.546;2022-12-07T01:18:30;5.20;91.00
67141;DHT22;54058;52.010;5.546;2022-12-07T01:21:09;5.20;91.00
67141;DHT22;54058;52.010;5.546;2022-12-07T01:23:36;5.20;91.00
67141;DHT22;54058;52.010;5.546;2022-12-07T01:26:05;5.10;91.00
67141;DHT22;54058;52.010;5.546;2022-12-07T01:28:31;5.10;91.00
67141;DHT22;54058;52.010;5.546;2022-12-07T01:31:11;5.10;91.00
67141;DHT22;54058;52.010;5.546;2022-12-07T01:33:38;5.10;91.00
67141;DHT22;54058;52.010;5.546;2022-12-07T01:36:06;5.10;91.00
67141;DHT22;54058;52.010;5.546;2022-12-07T01:38:33;5.10;91.00
67141;DHT22;54058;52.010;5.546;2022-12-07T01:41:01;5.10;91.00
67141;DHT22;54058;52.010;5.546;2022-12-07T01:43:29;5.10;91.00
67141;DHT22;54058;52.010;5.546;2022-12-07T01:45:55;5.10;91.00
67141;DHT22;54058;52.010;5.546;2022-12-07T01:48:28;5.10;90.90
67141;DHT22;54058;52.010;5.546;2022-12-07T01:50:56;5.00;91.00
67141;DHT22;54058;52.010;5.546;2022-12-07T01:53:26;5.00;91.00
67141;DHT22;54058;52.010;5.546;2022-12-07T01:55:55;5.00;91.00
67141;DHT22;54058;52.010;5.546;2022-12-07T01:58:22;5.00;91.00
67141;DHT22;54058;52.010;5.546;2022-12-07T02:00:48;5.00;91.00
67141;DHT22;54058;52.010;5.546;2022-12-07T02:03:18;5.00;91.00
67141;DHT22;54058;52.010;5.546;2022-12-07T02:05:46;5.00;91.00
67141;DHT22;54058;52.010;5.546;2022-12-07T02:08:12;4.90;90.90
67141;DHT22;54058;52.010;5.546;2022-12-07T02:10:39;4.90;90.90
67141;DHT22;54058;52.010;5.546;2022-12-07T02:15:47;4.80;91.00
67141;DHT22;54058;52.010;5.546;2022-12-07T02:37:29;4.70;91.00
67141;DHT22;54058;52.010;5.546;2022-12-07T02:40:27;4.70;91.10
67141;DHT22;54058;52.010;5.546;2022-12-07T02:43:08;4.80;91.10
67141;DHT22;54058;52.010;5.546;2022-12-07T02:45:36;4.80;91.10
67141;DHT22;54058;52.010;5.546;2022-12-07T02:48:05;4.80;91.10
67141;DHT22;54058;52.010;5.546;2022-12-07T02:50:32;4.80;91.10
67141;DHT22;54058;52.010;5.546;2022-12-07T02:52:57;4.80;91.10
67141;DHT22;54058;52.010;5.546;2022-12-07T02:55:40;4.80;91.20
67141;DHT22;54058;52.010;5.546;2022-12-07T02:58:30;4.90;91.30
67141;DHT22;54058;52.010;5.546;2022-12-07T03:01:11;4.90;91.20
67141;DHT22;54058;52.010;5.546;2022-12-07T03:03:45;5.00;91.30
67141;DHT22;54058;52.010;5.546;2022-12-07T03:06:16;5.10;91.60
67141;DHT22;54058;52.010;5.546;2022-12-07T03:09:01;5.10;91.20
67141;DHT22;54058;52.010;5.546;2022-12-07T03:11:48;5.10;91.20
67141;DHT22;54058;52.010;5.546;2022-12-07T03:14:30;5.20;91.30
67141;DHT22;54058;52.010;5.546;2022-12-07T03:19:31;5.20;91.30
67141;DHT22;54058;52.010;5.546;2022-12-07T03:22:05;5.30;91.40
67141;DHT22;54058;52.010;5.546;2022-12-07T03:24:40;5.30;91.40
67141;DHT22;54058;52.010;5.546;2022-12-07T03:27:15;5.30;91.40
67141;DHT22;54058;52.010;5.546;2022-12-07T03:29:52;5.40;91.40
67141;DHT22;54058;52.010;5.546;2022-12-07T03:32:30;5.40;91.60
67141;DHT22;54058;52.010;5.546;2022-12-07T03:37:40;5.40;91.40
67141;DHT22;54058;52.010;5.546;2022-12-07T03:42:40;5.50;91.40
67141;DHT22;54058;52.010;5.546;2022-12-07T03:45:06;5.60;91.40
67141;DHT22;54058;52.010;5.546;2022-12-07T03:50:19;5.70;91.40
67141;DHT22;54058;52.010;5.546;2022-12-07T03:53:00;5.60;91.30
67141;DHT22;54058;52.010;5.546;2022-12-07T03:55:32;5.60;91.20
67141;DHT22;54058;52.010;5.546;2022-12-07T03:58:04;5.60;91.20
67141;DHT22;54058;52.010;5.546;2022-12-07T04:00:32;5.50;91.20
67141;DHT22;54058;52.010;5.546;2022-12-07T04:02:58;5.50;91.20
67141;DHT22;54058;52.010;5.546;2022-12-07T04:05:23;5.50;91.20
67141;DHT22;54058;52.010;5.546;2022-12-07T04:07:49;5.50;91.10
67141;DHT22;54058;52.010;5.546;2022-12-07T04:10:15;5.50;91.20
67141;DHT22;54058;52.010;5.546;2022-12-07T04:12:41;5.50;91.10
67141;DHT22;54058;52.010;5.546;2022-12-07T04:15:07;5.50;91.10
67141;DHT22;54058;52.010;5.546;2022-12-07T04:17:33;5.40;91.00
67141;DHT22;54058;52.010;5.546;2022-12-07T04:19:58;5.40;91.10
67141;DHT22;54058;52.010;5.546;2022-12-07T04:22:24;5.40;91.10
67141;DHT22;54058;52.010;5.546;2022-12-07T04:24:49;5.40;91.20
67141;DHT22;54058;52.010;5.546;2022-12-07T04:27:15;5.40;91.20
67141;DHT22;54058;52.010;5.546;2022-12-07T04:29:41;5.40;91.20
67141;DHT22;54058;52.010;5.546;2022-12-07T04:32:06;5.30;91.20
67141;DHT22;54058;52.010;5.546;2022-12-07T04:34:32;5.30;91.20
67141;DHT22;54058;52.010;5.546;2022-12-07T04:36:58;5.30;91.20
67141;DHT22;54058;52.010;5.546;2022-12-07T04:39:33;5.30;91.30
67141;DHT22;54058;52.010;5.546;2022-12-07T04:41:59;5.40;91.30
67141;DHT22;54058;52.010;5.546;2022-12-07T04:44:26;5.40;91.30
67141;DHT22;54058;52.010;5.546;2022-12-07T04:46:53;5.40;91.30
67141;DHT22;54058;52.010;5.546;2022-12-07T04:49:19;5.40;91.40
67141;DHT22;54058;52.010;5.546;2022-12-07T04:51:46;5.40;91.40
67141;DHT22;54058;52.010;5.546;2022-12-07T04:54:13;5.50;91.40
67141;DHT22;54058;52.010;5.546;2022-12-07T04:56:39;5.40;91.30
67141;DHT22;54058;52.010;5.546;2022-12-07T04:59:05;5.40;91.40
67141;DHT22;54058;52.010;5.546;2022-12-07T05:01:31;5.50;91.40
67141;DHT22;54058;52.010;5.546;2022-12-07T05:03:57;5.50;91.40
67141;DHT22;54058;52.010;5.546;2022-12-07T05:06:23;5.50;91.40
67141;DHT22;54058;52.010;5.546;2022-12-07T05:08:49;5.50;91.30
67141;DHT22;54058;52.010;5.546;2022-12-07T05:11:15;5.50;91.40
67141;DHT22;54058;52.010;5.546;2022-12-07T05:14:00;5.50;91.30
67141;DHT22;54058;52.010;5.546;2022-12-07T05:16:26;5.40;91.30
67141;DHT22;54058;52.010;5.546;2022-12-07T05:18:52;5.40;91.40
67141;DHT22;54058;52.010;5.546;2022-12-07T05:21:18;5.50;91.40
67141;DHT22;54058;52.010;5.546;2022-12-07T05:23:43;5.40;91.40
67141;DHT22;54058;52.010;5.546;2022-12-07T05:26:09;5.50;91.40
67141;DHT22;54058;52.010;5.546;2022-12-07T05:28:35;5.40;91.40
67141;DHT22;54058;52.010;5.546;2022-12-07T05:31:01;5.40;91.40
67141;DHT22;54058;52.010;5.546;2022-12-07T05:33:26;5.50;91.40
67141;DHT22;54058;52.010;5.546;2022-12-07T05:35:52;5.40;91.30
67141;DHT22;54058;52.010;5.546;2022-12-07T05:38:18;5.40;91.30
67141;DHT22;54058;52.010;5.546;2022-12-07T05:40:43;5.30;91.30
67141;DHT22;54058;52.010;5.546;2022-12-07T05:43:10;5.30;91.30
67141;DHT22;54058;52.010;5.546;2022-12-07T05:45:36;5.30;91.30
67141;DHT22;54058;52.010;5.546;2022-12-07T05:48:02;5.20;91.50
67141;DHT22;54058;52.010;5.546;2022-12-07T05:50:27;5.20;91.20
67141;DHT22;54058;52.010;5.546;2022-12-07T05:52:53;5.20;91.20
67141;DHT22;54058;52.010;5.546;2022-12-07T05:55:19;5.20;91.40
67141;DHT22;54058;52.010;5.546;2022-12-07T05:57:45;5.10;91.20
67141;DHT22;54058;52.010;5.546;2022-12-07T06:00:31;5.10;91.20
67141;DHT22;54058;52.010;5.546;2022-12-07T06:02:57;5.10;91.20
67141;DHT22;54058;52.010;5.546;2022-12-07T06:05:22;5.10;91.20
67141;DHT22;54058;52.010;5.546;2022-12-07T06:07:49;5.10;91.30
67141;DHT22;54058;52.010;5.546;2022-12-07T06:10:14;5.10;91.30
67141;DHT22;54058;52.010;5.546;2022-12-07T06:12:40;5.10;91.30
67141;DHT22;54058;52.010;5.546;2022-12-07T06:15:09;5.20;91.40
67141;DHT22;54058;52.010;5.546;2022-12-07T06:17:35;5.20;91.30
67141;DHT22;54058;52.010;5.546;2022-12-07T06:20:01;5.20;91.30
67141;DHT22;54058;52.010;5.546;2022-12-07T06:22:26;5.20;91.30
67141;DHT22;54058;52.010;5.546;2022-12-07T06:24:52;5.10;91.20
67141;DHT22;54058;52.010;5.546;2022-12-07T06:27:17;5.10;91.20
67141;DHT22;54058;52.010;5.546;2022-12-07T06:29:43;5.10;91.30
67141;DHT22;54058;52.010;5.546;2022-12-07T06:32:09;5.10;91.20
67141;DHT22;54058;52.010;5.546;2022-12-07T06:34:34;5.10;91.30
67141;DHT22;54058;52.010;5.546;2022-12-07T06:37:00;5.00;91.20
67141;DHT22;54058;52.010;5.546;2022-12-07T06:39:27;5.10;91.30
67141;DHT22;54058;52.010;5.546;2022-12-07T06:41:53;5.00;91.20
67141;DHT22;54058;52.010;5.546;2022-12-07T06:44:20;5.00;91.20
67141;DHT22;54058;52.010;5.546;2022-12-07T06:46:46;5.00;91.20
67141;DHT22;54058;52.010;5.546;2022-12-07T06:49:11;4.90;91.20
67141;DHT22;54058;52.010;5.546;2022-12-07T06:51:37;5.00;91.30
67141;DHT22;54058;52.010;5.546;2022-12-07T06:54:07;5.00;91.20
67141;DHT22;54058;52.010;5.546;2022-12-07T06:56:33;5.00;91.30
67141;DHT22;54058;52.010;5.546;2022-12-07T06:58:59;5.00;91.30
67141;DHT22;54058;52.010;5.546;2022-12-07T07:01:24;5.00;91.30
67141;DHT22;54058;52.010;5.546;2022-12-07T07:03:50;5.00;91.30
67141;DHT22;54058;52.010;5.546;2022-12-07T07:06:16;5.00;91.30
67141;DHT22;54058;52.010;5.546;2022-12-07T07:08:41;5.10;91.30
67141;DHT22;54058;52.010;5.546;2022-12-07T07:11:08;5.10;91.30
67141;DHT22;54058;52.010;5.546;2022-12-07T07:13:34;5.10;91.30
67141;DHT22;54058;52.010;5.546;2022-12-07T07:16:00;5.20;91.30
67141;DHT22;54058;52.010;5.546;2022-12-07T07:18:26;5.10;91.20
67141;DHT22;54058;52.010;5.546;2022-12-07T07:20:52;5.10;91.10
67141;DHT22;54058;52.010;5.546;2022-12-07T07:23:19;5.10;91.10
67141;DHT22;54058;52.010;5.546;2022-12-07T07:25:45;5.10;91.10
67141;DHT22;54058;52.010;5.546;2022-12-07T07:28:11;5.00;91.00
67141;DHT22;54058;52.010;5.546;2022-12-07T07:30:37;5.00;91.00
67141;DHT22;54058;52.010;5.546;2022-12-07T07:33:03;5.00;90.90
67141;DHT22;54058;52.010;5.546;2022-12-07T07:35:31;5.00;90.90
67141;DHT22;54058;52.010;5.546;2022-12-07T07:37:56;4.90;90.90
67141;DHT22;54058;52.010;5.546;2022-12-07T07:40:22;4.90;91.00
67141;DHT22;54058;52.010;5.546;2022-12-07T07:42:50;4.90;90.90
67141;DHT22;54058;52.010;5.546;2022-12-07T07:45:17;4.90;91.00
67141;DHT22;54058;52.010;5.546;2022-12-07T07:47:44;4.90;91.00
67141;DHT22;54058;52.010;5.546;2022-12-07T07:50:09;4.90;90.90
67141;DHT22;54058;52.010;5.546;2022-12-07T07:52:35;4.90;90.90
67141;DHT22;54058;52.010;5.546;2022-12-07T07:55:01;4.90;90.90
67141;DHT22;54058;52.010;5.546;2022-12-07T07:57:27;4.90;90.90
67141;DHT22;54058;52.010;5.546;2022-12-07T07:59:52;4.90;90.90
67141;DHT22;54058;52.010;5.546;2022-12-07T08:02:20;4.90;90.90
67141;DHT22;54058;52.010;5.546;2022-12-07T08:04:46;4.90;90.90
67141;DHT22;54058;52.010;5.546;2022-12-07T08:07:13;4.90;90.90
67141;DHT22;54058;52.010;5.546;2022-12-07T08:09:39;4.90;90.90
67141;DHT22;54058;52.010;5.546;2022-12-07T08:12:05;4.90;90.90
67141;DHT22;54058;52.010;5.546;2022-12-07T08:14:31;4.90;90.80
67141;DHT22;54058;52.010;5.546;2022-12-07T08:16:57;4.90;90.90
67141;DHT22;54058;52.010;5.546;2022-12-07T08:19:23;4.90;90.90
67141;DHT22;54058;52.010;5.546;2022-12-07T08:21:48;4.90;90.90
67141;DHT22;54058;52.010;5.546;2022-12-07T08:24:15;4.90;90.90
67141;DHT22;54058;52.010;5.546;2022-12-07T08:26:41;5.00;91.00
67141;DHT22;54058;52.010;5.546;2022-12-07T08:29:07;5.10;91.00
67141;DHT22;54058;52.010;5.546;2022-12-07T08:31:32;5.10;91.10
67141;DHT22;54058;52.010;5.546;2022-12-07T08:33:58;5.20;91.10
67141;DHT22;54058;52.010;5.546;2022-12-07T08:36:24;5.20;91.10
67141;DHT22;54058;52.010;5.546;2022-12-07T08:38:49;5.20;91.10
67141;DHT22;54058;52.010;5.546;2022-12-07T08:41:15;5.20;91.00
67141;DHT22;54058;52.010;5.546;2022-12-07T08:43:41;5.20;91.00
67141;DHT22;54058;52.010;5.546;2022-12-07T08:46:26;5.30;91.10
67141;DHT22;54058;52.010;5.546;2022-12-07T08:49:12;5.30;91.10
67141;DHT22;54058;52.010;5.546;2022-12-07T08:51:39;5.40;91.20
67141;DHT22;54058;52.010;5.546;2022-12-07T08:54:07;5.50;91.30
67141;DHT22;54058;52.010;5.546;2022-12-07T08:56:34;5.50;91.30
67141;DHT22;54058;52.010;5.546;2022-12-07T08:59:00;5.60;91.40
67141;DHT22;54058;52.010;5.546;2022-12-07T09:01:25;5.70;91.40
67141;DHT22;54058;52.010;5.546;2022-12-07T09:03:52;5.70;91.40
67141;DHT22;54058;52.010;5.546;2022-12-07T09:06:17;5.80;91.40
67141;DHT22;54058;52.010;5.546;2022-12-07T09:08:46;5.90;91.40
67141;DHT22;54058;52.010;5.546;2022-12-07T09:11:12;5.90;91.40
67141;DHT22;54058;52.010;5.546;2022-12-07T09:13:38;6.00;91.40
67141;DHT22;54058;52.010;5.546;2022-12-07T09:16:04;6.10;91.40
67141;DHT22;54058;52.010;5.546;2022-12-07T09:18:30;6.10;91.30
67141;DHT22;54058;52.010;5.546;2022-12-07T09:20:56;6.20;91.20
67141;DHT22;54058;52.010;5.546;2022-12-07T09:23:22;6.20;91.20
67141;DHT22;54058;52.010;5.546;2022-12-07T09:25:48;6.20;91.20
67141;DHT22;54058;52.010;5.546;2022-12-07T09:28:13;6.20;91.10
67141;DHT22;54058;52.010;5.546;2022-12-07T09:30:44;6.20;91.10
67141;DHT22;54058;52.010;5.546;2022-12-07T09:33:10;6.20;91.20
67141;DHT22;54058;52.010;5.546;2022-12-07T09:35:36;6.20;91.20
67141;DHT22;54058;52.010;5.546;2022-12-07T09:38:01;6.20;91.10
67141;DHT22;54058;52.010;5.546;2022-12-07T09:40:27;6.20;91.10
67141;DHT22;54058;52.010;5.546;2022-12-07T09:42:54;6.20;91.20
67141;DHT22;54058;52.010;5.546;2022-12-07T09:45:22;6.30;91.20
67141;DHT22;54058;52.010;5.546;2022-12-07T09:47:49;6.30;91.20
67141;DHT22;54058;52.010;5.546;2022-12-07T09:50:20;6.40;91.30
67141;DHT22;54058;52.010;5.546;2022-12-07T09:52:47;6.40;91.30
67141;DHT22;54058;52.010;5.546;2022-12-07T09:55:26;6.50;91.30
67141;DHT22;54058;52.010;5.546;2022-12-07T09:57:52;6.60;91.30
67141;DHT22;54058;52.010;5.546;2022-12-07T10:00:20;6.70;91.40
67141;DHT22;54058;52.010;5.546;2022-12-07T10:03:01;6.70;91.30
67141;DHT22;54058;52.010;5.546;2022-12-07T10:05:36;6.70;91.30
67141;DHT22;54058;52.010;5.546;2022-12-07T10:08:04;6.80;91.30
67141;DHT22;54058;52.010;5.546;2022-12-07T10:10:32;6.80;91.30
67141;DHT22;54058;52.010;5.546;2022-12-07T10:13:05;6.90;91.30
67141;DHT22;54058;52.010;5.546;2022-12-07T10:18:25;7.00;91.30
67141;DHT22;54058;52.010;5.546;2022-12-07T10:23:28;7.10;91.30
67141;DHT22;54058;52.010;5.546;2022-12-07T10:25:54;7.10;91.30
67141;DHT22;54058;52.010;5.546;2022-12-07T10:28:21;7.10;91.30
67141;DHT22;54058;52.010;5.546;2022-12-07T10:30:59;7.10;91.20
67141;DHT22;54058;52.010;5.546;2022-12-07T10:33:28;7.10;91.10
67141;DHT22;54058;52.010;5.546;2022-12-07T10:35:54;7.10;91.20
67141;DHT22;54058;52.010;5.546;2022-12-07T10:38:20;7.10;91.20
67141;DHT22;54058;52.010;5.546;2022-12-07T10:40:46;7.20;91.20
67141;DHT22;54058;52.010;5.546;2022-12-07T10:46:08;7.20;91.10
67141;DHT22;54058;52.010;5.546;2022-12-07T10:49:07;7.10;91.10
67141;DHT22;54058;52.010;5.546;2022-12-07T11:00:25;7.30;90.90
67141;DHT22;54058;52.010;5.546;2022-12-07T11:06:39;7.10;90.70
67141;DHT22;54058;52.010;5.546;2022-12-07T11:09:29;7.10;90.80
67141;DHT22;54058;52.010;5.546;2022-12-07T11:12:09;7.00;90.80
67141;DHT22;54058;52.010;5.546;2022-12-07T11:17:49;7.10;90.90
67141;DHT22;54058;52.010;5.546;2022-12-07T11:23:42;7.20;90.90
67141;DHT22;54058;52.010;5.546;2022-12-07T11:32:41;7.20;90.80
67141;DHT22;54058;52.010;5.546;2022-12-07T11:38:00;7.30;90.80
67141;DHT22;54058;52.010;5.546;2022-12-07T11:40:33;7.40;90.90
67141;DHT22;54058;52.010;5.546;2022-12-07T11:43:21;7.40;90.80
67141;DHT22;54058;52.010;5.546;2022-12-07T11:45:59;7.50;90.80
67141;DHT22;54058;52.010;5.546;2022-12-07T11:48:40;7.60;90.80
67141;DHT22;54058;52.010;5.546;2022-12-07T11:51:10;7.60;90.70
67141;DHT22;54058;52.010;5.546;2022-12-07T11:53:45;7.60;90.70
67141;DHT22;54058;52.010;5.546;2022-12-07T11:56:17;7.60;90.70
67141;DHT22;54058;52.010;5.546;2022-12-07T11:58:59;7.60;90.70
67141;DHT22;54058;52.010;5.546;2022-12-07T12:06:36;7.40;90.60
67141;DHT22;54058;52.010;5.546;2022-12-07T12:09:24;7.40;90.70
67141;DHT22;54058;52.010;5.546;2022-12-07T12:15:06;7.30;90.60
67141;DHT22;54058;52.010;5.546;2022-12-07T12:22:53;7.40;90.60
67141;DHT22;54058;52.010;5.546;2022-12-07T12:25:29;7.40;90.40
67141;DHT22;54058;52.010;5.546;2022-12-07T12:27:58;7.30;90.50
67141;DHT22;54058;52.010;5.546;2022-12-07T12:30:34;7.30;90.50
67141;DHT22;54058;52.010;5.546;2022-12-07T12:33:03;7.30;90.70
67141;DHT22;54058;52.010;5.546;2022-12-07T12:35:37;7.30;90.60
67141;DHT22;54058;52.010;5.546;2022-12-07T12:40:52;7.40;90.60
67141;DHT22;54058;52.010;5.546;2022-12-07T12:43:52;7.50;90.90
67141;DHT22;54058;52.010;5.546;2022-12-07T12:46:38;7.50;90.50
67141;DHT22;54058;52.010;5.546;2022-12-07T12:54:26;7.50;90.40
67141;DHT22;54058;52.010;5.546;2022-12-07T12:57:19;7.50;90.40
67141;DHT22;54058;52.010;5.546;2022-12-07T13:10:38;7.60;90.40
67141;DHT22;54058;52.010;5.546;2022-12-07T13:13:31;7.70;90.40
67141;DHT22;54058;52.010;5.546;2022-12-07T13:20:58;7.80;90.50
67141;DHT22;54058;52.010;5.546;2022-12-07T13:23:59;7.90;90.60
67141;DHT22;54058;52.010;5.546;2022-12-07T13:31:45;8.20;90.50
67141;DHT22;54058;52.010;5.546;2022-12-07T13:36:52;8.40;90.50
67141;DHT22;54058;52.010;5.546;2022-12-07T13:39:20;8.50;90.50
67141;DHT22;54058;52.010;5.546;2022-12-07T13:41:55;8.60;90.30
67141;DHT22;54058;52.010;5.546;2022-12-07T13:44:23;8.20;88.20
67141;DHT22;54058;52.010;5.546;2022-12-07T13:47:19;7.90;89.30
67141;DHT22;54058;52.010;5.546;2022-12-07T13:49:53;7.80;89.80
67141;DHT22;54058;52.010;5.546;2022-12-07T13:52:27;7.60;90.00
67141;DHT22;54058;52.010;5.546;2022-12-07T13:55:16;7.60;90.30
67141;DHT22;54058;52.010;5.546;2022-12-07T13:57:45;7.50;90.30
67141;DHT22;54058;52.010;5.546;2022-12-07T14:00:22;7.40;90.40
67141;DHT22;54058;52.010;5.546;2022-12-07T14:03:33;7.30;90.40
67141;DHT22;54058;52.010;5.546;2022-12-07T14:06:25;7.30;90.40
67141;DHT22;54058;52.010;5.546;2022-12-07T14:09:07;7.40;90.70
67141;DHT22;54058;52.010;5.546;2022-12-07T14:11:33;7.40;90.50
67141;DHT22;54058;52.010;5.546;2022-12-07T14:14:01;7.40;90.50
67141;DHT22;54058;52.010;5.546;2022-12-07T14:16:33;7.40;90.50
67141;DHT22;54058;52.010;5.546;2022-12-07T14:19:04;7.40;90.60
67141;DHT22;54058;52.010;5.546;2022-12-07T14:21:34;7.40;90.60
67141;DHT22;54058;52.010;5.546;2022-12-07T14:26:34;7.30;90.60
67141;DHT22;54058;52.010;5.546;2022-12-07T14:29:32;7.30;90.60
67141;DHT22;54058;52.010;5.546;2022-12-07T14:32:19;7.30;90.60
67141;DHT22;54058;52.010;5.546;2022-12-07T14:35:08;7.20;90.60
67141;DHT22;54058;52.010;5.546;2022-12-07T14:37:36;7.20;90.60
67141;DHT22;54058;52.010;5.546;2022-12-07T14:40:01;7.20;90.60
67141;DHT22;54058;52.010;5.546;2022-12-07T14:42:29;7.10;90.70
67141;DHT22;54058;52.010;5.546;2022-12-07T14:44:56;7.10;90.70
67141;DHT22;54058;52.010;5.546;2022-12-07T14:47:23;7.10;90.80
67141;DHT22;54058;52.010;5.546;2022-12-07T14:49:49;7.10;90.80
67141;DHT22;54058;52.010;5.546;2022-12-07T14:52:19;7.10;90.80
67141;DHT22;54058;52.010;5.546;2022-12-07T14:54:46;7.20;90.80
67141;DHT22;54058;52.010;5.546;2022-12-07T14:57:11;7.20;90.80
67141;DHT22;54058;52.010;5.546;2022-12-07T14:59:37;7.20;90.80
67141;DHT22;54058;52.010;5.546;2022-12-07T15:02:04;7.10;90.70
67141;DHT22;54058;52.010;5.546;2022-12-07T15:04:29;7.10;90.70
67141;DHT22;54058;52.010;5.546;2022-12-07T15:06:59;7.10;90.70
67141;DHT22;54058;52.010;5.546;2022-12-07T15:09:26;7.00;90.70
67141;DHT22;54058;52.010;5.546;2022-12-07T15:11:51;7.00;90.80
67141;DHT22;54058;52.010;5.546;2022-12-07T15:14:17;7.00;90.80
67141;DHT22;54058;52.010;5.546;2022-12-07T15:16:43;7.00;90.70
67141;DHT22;54058;52.010;5.546;2022-12-07T15:19:15;6.90;90.80
67141;DHT22;54058;52.010;5.546;2022-12-07T15:21:41;6.90;90.70
67141;DHT22;54058;52.010;5.546;2022-12-07T15:24:09;6.90;90.70
67141;DHT22;54058;52.010;5.546;2022-12-07T15:26:35;6.90;90.70
67141;DHT22;54058;52.010;5.546;2022-12-07T15:29:01;6.90;90.70
67141;DHT22;54058;52.010;5.546;2022-12-07T15:31:26;6.90;90.70
67141;DHT22;54058;52.010;5.546;2022-12-07T15:33:52;6.80;90.70
67141;DHT22;54058;52.010;5.546;2022-12-07T15:36:22;6.80;90.80
67141;DHT22;54058;52.010;5.546;2022-12-07T15:38:48;6.90;90.80
67141;DHT22;54058;52.010;5.546;2022-12-07T15:41:15;6.80;90.80
67141;DHT22;54058;52.010;5.546;2022-12-07T15:43:40;6.80;90.80
67141;DHT22;54058;52.010;5.546;2022-12-07T15:46:32;6.80;90.80
67141;DHT22;54058;52.010;5.546;2022-12-07T15:48:58;6.80;90.80
67141;DHT22;54058;52.010;5.546;2022-12-07T15:51:24;6.70;90.80
67141;DHT22;54058;52.010;5.546;2022-12-07T15:53:51;6.70;90.80
67141;DHT22;54058;52.010;5.546;2022-12-07T15:56:16;6.70;90.80
67141;DHT22;54058;52.010;5.546;2022-12-07T15:58:42;6.70;90.90
67141;DHT22;54058;52.010;5.546;2022-12-07T16:03:37;6.70;90.90
67141;DHT22;54058;52.010;5.546;2022-12-07T16:06:03;6.60;90.80
67141;DHT22;54058;52.010;5.546;2022-12-07T16:08:29;6.50;90.80
67141;DHT22;54058;52.010;5.546;2022-12-07T16:10:54;6.50;90.80
67141;DHT22;54058;52.010;5.546;2022-12-07T16:13:20;6.50;90.90
67141;DHT22;54058;52.010;5.546;2022-12-07T16:15:46;6.50;90.90
67141;DHT22;54058;52.010;5.546;2022-12-07T16:18:12;6.50;90.90
67141;DHT22;54058;52.010;5.546;2022-12-07T16:20:38;6.50;90.90
67141;DHT22;54058;52.010;5.546;2022-12-07T16:23:03;6.50;90.80
67141;DHT22;54058;52.010;5.546;2022-12-07T16:25:29;6.50;90.80
67141;DHT22;54058;52.010;5.546;2022-12-07T16:27:55;6.50;90.70
67141;DHT22;54058;52.010;5.546;2022-12-07T16:30:20;6.50;90.70
67141;DHT22;54058;52.010;5.546;2022-12-07T16:32:46;6.40;90.70
67141;DHT22;54058;52.010;5.546;2022-12-07T16:35:12;6.30;90.70
67141;DHT22;54058;52.010;5.546;2022-12-07T16:37:38;6.30;90.70
67141;DHT22;54058;52.010;5.546;2022-12-07T16:40:07;6.30;90.70
67141;DHT22;54058;52.010;5.546;2022-12-07T16:42:33;6.30;90.80
67141;DHT22;54058;52.010;5.546;2022-12-07T16:45:00;6.40;90.70
67141;DHT22;54058;52.010;5.546;2022-12-07T16:47:26;6.30;90.70
67141;DHT22;54058;52.010;5.546;2022-12-07T16:49:51;6.30;90.70
67141;DHT22;54058;52.010;5.546;2022-12-07T16:52:18;6.30;90.70
67141;DHT22;54058;52.010;5.546;2022-12-07T16:54:44;6.30;90.70
67141;DHT22;54058;52.010;5.546;2022-12-07T16:57:10;6.30;90.70
67141;DHT22;54058;52.010;5.546;2022-12-07T16:59:35;6.30;90.70
67141;DHT22;54058;52.010;5.546;2022-12-07T17:02:01;6.30;90.60
67141;DHT22;54058;52.010;5.546;2022-12-07T17:04:27;6.20;90.60
67141;DHT22;54058;52.010;5.546;2022-12-07T17:06:53;6.20;90.60
67141;DHT22;54058;52.010;5.546;2022-12-07T17:09:19;6.20;90.70
67141;DHT22;54058;52.010;5.546;2022-12-07T17:11:45;6.10;90.70
67141;DHT22;54058;52.010;5.546;2022-12-07T17:14:11;6.10;90.60
67141;DHT22;54058;52.010;5.546;2022-12-07T17:16:55;6.00;90.70
67141;DHT22;54058;52.010;5.546;2022-12-07T17:19:21;6.00;90.80
67141;DHT22;54058;52.010;5.546;2022-12-07T17:21:46;6.00;90.80
67141;DHT22;54058;52.010;5.546;2022-12-07T17:24:15;6.10;90.80
67141;DHT22;54058;52.010;5.546;2022-12-07T17:26:40;6.00;90.60
67141;DHT22;54058;52.010;5.546;2022-12-07T17:29:08;6.00;90.60
67141;DHT22;54058;52.010;5.546;2022-12-07T17:31:34;6.10;90.80
67141;DHT22;54058;52.010;5.546;2022-12-07T17:34:00;6.10;90.70
67141;DHT22;54058;52.010;5.546;2022-12-07T17:36:28;6.10;90.60
67141;DHT22;54058;52.010;5.546;2022-12-07T17:38:54;6.10;90.60
67141;DHT22;54058;52.010;5.546;2022-12-07T17:41:23;6.10;90.70
67141;DHT22;54058;52.010;5.546;2022-12-07T17:44:16;6.10;90.60
67141;DHT22;54058;52.010;5.546;2022-12-07T17:46:42;6.10;90.90
67141;DHT22;54058;52.010;5.546;2022-12-07T17:49:08;6.10;90.60
67141;DHT22;54058;52.010;5.546;2022-12-07T17:51:34;6.20;90.60
67141;DHT22;54058;52.010;5.546;2022-12-07T17:54:19;6.10;90.50
67141;DHT22;54058;52.010;5.546;2022-12-07T17:56:45;6.10;90.60
67141;DHT22;54058;52.010;5.546;2022-12-07T17:59:11;6.10;90.60